sensor_id;sensor_type;location;lat;lon;timestamp;P1;durP1;ratioP1;P2;durP2;ratioP2
74660;SDS011;63191;39.566;2.654;2023-01-24T00:00:39;7.30;;;1.70;;
74660;SDS011;63191;39.566;2.654;2023-01-24T00:03:06;8.20;;;1.90;;
74660;SDS011;63191;39.566;2.654;2023-01-24T00:05:40;9.40;;;1.60;;
74660;SDS011;63191;39.566;2.654;2023-01-24T00:08:06;6.90;;;1.70;;
74660;SDS011;63191;39.566;2.654;2023-01-24T00:10:34;9.90;;;1.70;;
74660;SDS011;63191;39.566;2.654;2023-01-24T00:13:01;8.10;;;1.70;;
74660;SDS011;63191;39.566;2.654;2023-01-24T00:15:28;6.90;;;1.60;;
74660;SDS011;63191;39.566;2.654;2023-01-24T00:17:53;8.00;;;1.50;;
74660;SDS011;63191;39.566;2.654;2023-01-24T00:20:20;8.20;;;1.70;;
74660;SDS011;63191;39.566;2.654;2023-01-24T00:22:47;7.00;;;1.60;;
74660;SDS011;63191;39.566;2.654;2023-01-24T00:25:13;11.50;;;2.70;;
74660;SDS011;63191;39.566;2.654;2023-01-24T00:27:38;9.50;;;2.10;;
74660;SDS011;63191;39.566;2.654;2023-01-24T00:30:05;9.10;;;1.60;;
74660;SDS011;63191;39.566;2.654;2023-01-24T00:32:31;10.10;;;2.30;;
74660;SDS011;63191;39.566;2.654;2023-01-24T00:34:58;9.40;;;2.30;;
74660;SDS011;63191;39.566;2.654;2023-01-24T00:37:24;8.90;;;2.00;;
74660;SDS011;63191;39.566;2.654;2023-01-24T00:39:50;8.80;;;2.00;;
74660;SDS011;63191;39.566;2.654;2023-01-24T00:42:17;7.90;;;1.90;;
74660;SDS011;63191;39.566;2.654;2023-01-24T00:44:43;7.00;;;1.60;;
74660;SDS011;63191;39.566;2.654;2023-01-24T00:47:09;5.60;;;1.20;;
74660;SDS011;63191;39.566;2.654;2023-01-24T00:49:35;9.50;;;2.00;;
74660;SDS011;63191;39.566;2.654;2023-01-24T00:52:01;7.20;;;1.50;;
74660;SDS011;63191;39.566;2.654;2023-01-24T00:54:26;6.80;;;1.60;;
74660;SDS011;63191;39.566;2.654;2023-01-24T00:56:52;8.10;;;2.00;;
74660;SDS011;63191;39.566;2.654;2023-01-24T00:59:18;7.60;;;2.40;;
74660;SDS011;63191;39.566;2.654;2023-01-24T01:01:44;10.10;;;2.20;;
74660;SDS011;63191;39.566;2.654;2023-01-24T01:04:10;10.80;;;2.20;;
74660;SDS011;63191;39.566;2.654;2023-01-24T01:06:36;8.50;;;2.20;;
74660;SDS011;63191;39.566;2.654;2023-01-24T01:09:02;9.00;;;2.20;;
74660;SDS011;63191;39.566;2.654;2023-01-24T01:11:28;6.20;;;1.50;;
74660;SDS011;63191;39.566;2.654;2023-01-24T01:13:55;5.90;;;1.70;;
74660;SDS011;63191;39.566;2.654;2023-01-24T01:16:24;8.60;;;2.00;;
74660;SDS011;63191;39.566;2.654;2023-01-24T01:18:53;8.60;;;1.70;;
74660;SDS011;63191;39.566;2.654;2023-01-24T01:21:21;10.20;;;2.60;;
74660;SDS011;63191;39.566;2.654;2023-01-24T01:23:48;8.60;;;2.00;;
74660;SDS011;63191;39.566;2.654;2023-01-24T01:26:22;12.30;;;2.20;;
74660;SDS011;63191;39.566;2.654;2023-01-24T01:28:49;6.50;;;1.50;;
74660;SDS011;63191;39.566;2.654;2023-01-24T01:31:16;7.30;;;1.80;;
74660;SDS011;63191;39.566;2.654;2023-01-24T01:33:44;7.30;;;1.80;;
74660;SDS011;63191;39.566;2.654;2023-01-24T01:36:11;10.30;;;2.00;;
74660;SDS011;63191;39.566;2.654;2023-01-24T01:38:36;7.20;;;1.60;;
74660;SDS011;63191;39.566;2.654;2023-01-24T01:41:02;6.90;;;1.40;;
74660;SDS011;63191;39.566;2.654;2023-01-24T01:43:30;5.90;;;1.80;;
74660;SDS011;63191;39.566;2.654;2023-01-24T01:46:18;7.70;;;1.90;;
74660;SDS011;63191;39.566;2.654;2023-01-24T01:48:49;6.20;;;1.20;;
74660;SDS011;63191;39.566;2.654;2023-01-24T01:51:20;8.10;;;1.40;;
74660;SDS011;63191;39.566;2.654;2023-01-24T01:53:53;9.40;;;1.70;;
74660;SDS011;63191;39.566;2.654;2023-01-24T01:56:32;7.10;;;1.40;;
74660;SDS011;63191;39.566;2.654;2023-01-24T01:59:06;7.00;;;1.10;;
74660;SDS011;63191;39.566;2.654;2023-01-24T02:01:37;8.20;;;1.30;;
74660;SDS011;63191;39.566;2.654;2023-01-24T02:04:09;6.50;;;1.50;;
74660;SDS011;63191;39.566;2.654;2023-01-24T02:06:43;10.40;;;2.10;;
74660;SDS011;63191;39.566;2.654;2023-01-24T02:09:12;9.10;;;2.10;;
74660;SDS011;63191;39.566;2.654;2023-01-24T02:11:40;8.20;;;1.60;;
74660;SDS011;63191;39.566;2.654;2023-01-24T02:14:11;10.10;;;1.70;;
74660;SDS011;63191;39.566;2.654;2023-01-24T02:16:56;6.30;;;1.60;;
74660;SDS011;63191;39.566;2.654;2023-01-24T02:22:25;6.30;;;1.20;;
74660;SDS011;63191;39.566;2.654;2023-01-24T02:27:46;5.70;;;1.40;;
74660;SDS011;63191;39.566;2.654;2023-01-24T02:30:12;7.30;;;1.40;;
74660;SDS011;63191;39.566;2.654;2023-01-24T02:32:38;5.90;;;1.40;;
74660;SDS011;63191;39.566;2.654;2023-01-24T02:35:04;5.00;;;1.30;;
74660;SDS011;63191;39.566;2.654;2023-01-24T02:37:32;5.00;;;1.30;;
74660;SDS011;63191;39.566;2.654;2023-01-24T02:40:05;8.40;;;1.40;;
74660;SDS011;63191;39.566;2.654;2023-01-24T02:42:35;6.10;;;1.30;;
74660;SDS011;63191;39.566;2.654;2023-01-24T02:45:05;7.70;;;1.50;;
74660;SDS011;63191;39.566;2.654;2023-01-24T02:47:46;7.00;;;1.30;;
74660;SDS011;63191;39.566;2.654;2023-01-24T02:50:14;5.60;;;1.30;;
74660;SDS011;63191;39.566;2.654;2023-01-24T02:52:44;9.50;;;1.40;;
74660;SDS011;63191;39.566;2.654;2023-01-24T02:55:31;5.30;;;1.40;;
74660;SDS011;63191;39.566;2.654;2023-01-24T02:57:58;7.30;;;1.60;;
74660;SDS011;63191;39.566;2.654;2023-01-24T03:00:39;6.70;;;1.60;;
74660;SDS011;63191;39.566;2.654;2023-01-24T03:03:07;5.40;;;1.00;;
74660;SDS011;63191;39.566;2.654;2023-01-24T03:05:34;8.70;;;1.50;;
74660;SDS011;63191;39.566;2.654;2023-01-24T03:08:19;5.70;;;1.30;;
74660;SDS011;63191;39.566;2.654;2023-01-24T03:10:45;8.60;;;1.30;;
74660;SDS011;63191;39.566;2.654;2023-01-24T03:13:12;7.50;;;1.30;;
74660;SDS011;63191;39.566;2.654;2023-01-24T03:16:02;4.60;;;1.00;;
74660;SDS011;63191;39.566;2.654;2023-01-24T03:18:49;9.60;;;1.30;;
74660;SDS011;63191;39.566;2.654;2023-01-24T03:21:34;10.10;;;1.40;;
74660;SDS011;63191;39.566;2.654;2023-01-24T03:24:18;6.00;;;1.10;;
74660;SDS011;63191;39.566;2.654;2023-01-24T03:27:03;6.80;;;1.20;;
74660;SDS011;63191;39.566;2.654;2023-01-24T03:29:48;5.30;;;1.00;;
74660;SDS011;63191;39.566;2.654;2023-01-24T03:32:32;7.50;;;1.40;;
74660;SDS011;63191;39.566;2.654;2023-01-24T03:35:16;5.80;;;1.20;;
74660;SDS011;63191;39.566;2.654;2023-01-24T03:37:43;5.40;;;1.30;;
74660;SDS011;63191;39.566;2.654;2023-01-24T03:40:28;5.10;;;1.30;;
74660;SDS011;63191;39.566;2.654;2023-01-24T03:42:55;6.50;;;1.30;;
74660;SDS011;63191;39.566;2.654;2023-01-24T03:45:27;5.00;;;1.10;;
74660;SDS011;63191;39.566;2.654;2023-01-24T03:47:56;6.00;;;1.60;;
74660;SDS011;63191;39.566;2.654;2023-01-24T03:50:30;5.20;;;1.20;;
74660;SDS011;63191;39.566;2.654;2023-01-24T03:53:17;6.90;;;1.00;;
74660;SDS011;63191;39.566;2.654;2023-01-24T03:55:45;7.40;;;1.40;;
74660;SDS011;63191;39.566;2.654;2023-01-24T03:58:13;7.60;;;1.60;;
74660;SDS011;63191;39.566;2.654;2023-01-24T04:00:39;7.50;;;1.50;;
74660;SDS011;63191;39.566;2.654;2023-01-24T04:03:05;7.00;;;1.50;;
74660;SDS011;63191;39.566;2.654;2023-01-24T04:05:35;8.40;;;1.50;;
74660;SDS011;63191;39.566;2.654;2023-01-24T04:08:01;9.80;;;1.60;;
74660;SDS011;63191;39.566;2.654;2023-01-24T04:10:28;6.10;;;1.70;;
74660;SDS011;63191;39.566;2.654;2023-01-24T04:12:55;4.90;;;0.90;;
74660;SDS011;63191;39.566;2.654;2023-01-24T04:15:29;5.10;;;1.20;;
74660;SDS011;63191;39.566;2.654;2023-01-24T04:17:58;7.40;;;1.50;;
74660;SDS011;63191;39.566;2.654;2023-01-24T04:20:27;5.20;;;1.20;;
74660;SDS011;63191;39.566;2.654;2023-01-24T04:22:55;6.50;;;1.20;;
74660;SDS011;63191;39.566;2.654;2023-01-24T04:25:21;5.60;;;1.30;;
74660;SDS011;63191;39.566;2.654;2023-01-24T04:27:47;8.10;;;1.70;;
74660;SDS011;63191;39.566;2.654;2023-01-24T04:30:15;5.60;;;1.20;;
74660;SDS011;63191;39.566;2.654;2023-01-24T04:32:42;4.90;;;1.20;;
74660;SDS011;63191;39.566;2.654;2023-01-24T04:35:10;6.60;;;1.40;;
74660;SDS011;63191;39.566;2.654;2023-01-24T04:37:44;7.60;;;1.60;;
74660;SDS011;63191;39.566;2.654;2023-01-24T04:40:10;9.30;;;1.70;;
74660;SDS011;63191;39.566;2.654;2023-01-24T04:42:41;8.00;;;1.90;;
74660;SDS011;63191;39.566;2.654;2023-01-24T04:45:08;6.40;;;1.10;;
74660;SDS011;63191;39.566;2.654;2023-01-24T04:47:35;7.10;;;1.20;;
74660;SDS011;63191;39.566;2.654;2023-01-24T04:50:01;6.40;;;1.20;;
74660;SDS011;63191;39.566;2.654;2023-01-24T04:52:27;7.90;;;1.40;;
74660;SDS011;63191;39.566;2.654;2023-01-24T04:54:52;6.00;;;1.10;;
74660;SDS011;63191;39.566;2.654;2023-01-24T04:57:18;5.40;;;0.80;;
74660;SDS011;63191;39.566;2.654;2023-01-24T04:59:44;6.00;;;1.40;;
74660;SDS011;63191;39.566;2.654;2023-01-24T05:02:10;7.00;;;1.60;;
74660;SDS011;63191;39.566;2.654;2023-01-24T05:04:35;7.30;;;1.60;;
74660;SDS011;63191;39.566;2.654;2023-01-24T05:07:02;5.90;;;1.20;;
74660;SDS011;63191;39.566;2.654;2023-01-24T05:09:27;8.00;;;1.50;;
74660;SDS011;63191;39.566;2.654;2023-01-24T05:11:53;7.10;;;1.40;;
74660;SDS011;63191;39.566;2.654;2023-01-24T05:14:19;6.30;;;1.50;;
74660;SDS011;63191;39.566;2.654;2023-01-24T05:16:44;7.10;;;2.00;;
74660;SDS011;63191;39.566;2.654;2023-01-24T05:19:10;8.10;;;1.80;;
74660;SDS011;63191;39.566;2.654;2023-01-24T05:21:36;5.30;;;1.60;;
74660;SDS011;63191;39.566;2.654;2023-01-24T05:24:03;8.30;;;1.40;;
74660;SDS011;63191;39.566;2.654;2023-01-24T05:26:29;9.50;;;1.80;;
74660;SDS011;63191;39.566;2.654;2023-01-24T05:28:55;8.30;;;2.00;;
74660;SDS011;63191;39.566;2.654;2023-01-24T05:31:21;7.10;;;1.70;;
74660;SDS011;63191;39.566;2.654;2023-01-24T05:33:47;8.70;;;1.80;;
74660;SDS011;63191;39.566;2.654;2023-01-24T05:36:16;7.70;;;1.80;;
74660;SDS011;63191;39.566;2.654;2023-01-24T05:38:44;7.30;;;1.60;;
74660;SDS011;63191;39.566;2.654;2023-01-24T05:41:15;8.40;;;1.80;;
74660;SDS011;63191;39.566;2.654;2023-01-24T05:43:42;9.40;;;2.10;;
74660;SDS011;63191;39.566;2.654;2023-01-24T05:46:18;6.30;;;1.40;;
74660;SDS011;63191;39.566;2.654;2023-01-24T05:48:47;5.50;;;1.10;;
74660;SDS011;63191;39.566;2.654;2023-01-24T05:51:15;6.20;;;1.30;;
74660;SDS011;63191;39.566;2.654;2023-01-24T05:53:44;9.40;;;1.90;;
74660;SDS011;63191;39.566;2.654;2023-01-24T05:56:14;6.10;;;1.50;;
74660;SDS011;63191;39.566;2.654;2023-01-24T05:58:43;7.00;;;1.70;;
74660;SDS011;63191;39.566;2.654;2023-01-24T06:03:42;9.40;;;1.90;;
74660;SDS011;63191;39.566;2.654;2023-01-24T06:06:11;7.70;;;1.80;;
74660;SDS011;63191;39.566;2.654;2023-01-24T06:08:38;8.40;;;1.80;;
74660;SDS011;63191;39.566;2.654;2023-01-24T06:11:13;9.10;;;1.90;;
74660;SDS011;63191;39.566;2.654;2023-01-24T06:13:41;9.20;;;2.10;;
74660;SDS011;63191;39.566;2.654;2023-01-24T06:16:11;9.10;;;1.50;;
74660;SDS011;63191;39.566;2.654;2023-01-24T06:18:45;7.00;;;1.50;;
74660;SDS011;63191;39.566;2.654;2023-01-24T06:24:20;10.10;;;2.20;;
74660;SDS011;63191;39.566;2.654;2023-01-24T06:26:49;9.30;;;2.20;;
74660;SDS011;63191;39.566;2.654;2023-01-24T06:29:16;5.50;;;1.50;;
74660;SDS011;63191;39.566;2.654;2023-01-24T06:37:44;7.40;;;1.80;;
74660;SDS011;63191;39.566;2.654;2023-01-24T06:40:15;6.90;;;1.50;;
74660;SDS011;63191;39.566;2.654;2023-01-24T06:42:44;7.10;;;1.60;;
74660;SDS011;63191;39.566;2.654;2023-01-24T06:45:11;5.40;;;1.50;;
74660;SDS011;63191;39.566;2.654;2023-01-24T06:47:37;6.70;;;1.10;;
74660;SDS011;63191;39.566;2.654;2023-01-24T06:50:05;6.50;;;1.40;;
74660;SDS011;63191;39.566;2.654;2023-01-24T06:52:34;7.30;;;1.60;;
74660;SDS011;63191;39.566;2.654;2023-01-24T06:55:00;7.00;;;1.70;;
74660;SDS011;63191;39.566;2.654;2023-01-24T06:57:26;7.60;;;1.80;;
74660;SDS011;63191;39.566;2.654;2023-01-24T06:59:51;6.60;;;2.00;;
74660;SDS011;63191;39.566;2.654;2023-01-24T07:02:17;9.50;;;2.30;;
74660;SDS011;63191;39.566;2.654;2023-01-24T07:04:43;7.10;;;2.00;;
74660;SDS011;63191;39.566;2.654;2023-01-24T07:07:09;8.80;;;2.70;;
74660;SDS011;63191;39.566;2.654;2023-01-24T07:09:34;8.90;;;2.60;;
74660;SDS011;63191;39.566;2.654;2023-01-24T07:12:00;7.30;;;2.50;;
74660;SDS011;63191;39.566;2.654;2023-01-24T07:14:29;8.50;;;2.30;;
74660;SDS011;63191;39.566;2.654;2023-01-24T07:16:55;14.00;;;2.50;;
74660;SDS011;63191;39.566;2.654;2023-01-24T07:19:21;10.70;;;2.00;;
74660;SDS011;63191;39.566;2.654;2023-01-24T07:21:49;10.20;;;2.10;;
74660;SDS011;63191;39.566;2.654;2023-01-24T07:24:20;8.90;;;1.90;;
74660;SDS011;63191;39.566;2.654;2023-01-24T07:26:48;9.00;;;2.00;;
74660;SDS011;63191;39.566;2.654;2023-01-24T07:29:20;7.80;;;2.00;;
74660;SDS011;63191;39.566;2.654;2023-01-24T07:31:56;9.90;;;2.40;;
74660;SDS011;63191;39.566;2.654;2023-01-24T07:34:22;7.80;;;2.00;;
74660;SDS011;63191;39.566;2.654;2023-01-24T07:36:48;7.40;;;2.20;;
74660;SDS011;63191;39.566;2.654;2023-01-24T07:39:15;10.30;;;2.80;;
74660;SDS011;63191;39.566;2.654;2023-01-24T07:41:43;12.80;;;2.60;;
74660;SDS011;63191;39.566;2.654;2023-01-24T07:44:12;8.90;;;2.30;;
74660;SDS011;63191;39.566;2.654;2023-01-24T07:46:40;11.00;;;2.70;;
74660;SDS011;63191;39.566;2.654;2023-01-24T07:49:06;10.50;;;2.80;;
74660;SDS011;63191;39.566;2.654;2023-01-24T07:51:32;8.70;;;2.50;;
74660;SDS011;63191;39.566;2.654;2023-01-24T07:53:57;7.00;;;2.40;;
74660;SDS011;63191;39.566;2.654;2023-01-24T07:56:23;9.30;;;2.60;;
74660;SDS011;63191;39.566;2.654;2023-01-24T07:58:49;10.10;;;2.80;;
74660;SDS011;63191;39.566;2.654;2023-01-24T08:01:20;9.30;;;2.60;;
74660;SDS011;63191;39.566;2.654;2023-01-24T08:03:46;10.90;;;2.70;;
74660;SDS011;63191;39.566;2.654;2023-01-24T08:06:12;12.90;;;3.30;;
74660;SDS011;63191;39.566;2.654;2023-01-24T08:08:38;12.60;;;3.00;;
74660;SDS011;63191;39.566;2.654;2023-01-24T08:11:03;14.40;;;3.60;;
74660;SDS011;63191;39.566;2.654;2023-01-24T08:13:29;9.10;;;2.90;;
74660;SDS011;63191;39.566;2.654;2023-01-24T08:15:55;10.30;;;2.90;;
74660;SDS011;63191;39.566;2.654;2023-01-24T08:18:20;9.90;;;2.90;;
74660;SDS011;63191;39.566;2.654;2023-01-24T08:20:46;8.50;;;3.00;;
74660;SDS011;63191;39.566;2.654;2023-01-24T08:23:13;10.40;;;3.10;;
74660;SDS011;63191;39.566;2.654;2023-01-24T08:25:39;18.70;;;7.10;;
74660;SDS011;63191;39.566;2.654;2023-01-24T08:28:05;12.90;;;3.90;;
74660;SDS011;63191;39.566;2.654;2023-01-24T08:30:30;12.20;;;4.30;;
74660;SDS011;63191;39.566;2.654;2023-01-24T08:33:04;12.30;;;4.20;;
74660;SDS011;63191;39.566;2.654;2023-01-24T08:35:31;11.50;;;4.20;;
74660;SDS011;63191;39.566;2.654;2023-01-24T08:38:00;13.30;;;4.20;;
74660;SDS011;63191;39.566;2.654;2023-01-24T08:40:28;11.80;;;4.30;;
74660;SDS011;63191;39.566;2.654;2023-01-24T08:42:53;10.80;;;3.30;;
74660;SDS011;63191;39.566;2.654;2023-01-24T08:45:19;11.50;;;3.60;;
74660;SDS011;63191;39.566;2.654;2023-01-24T08:47:50;10.30;;;3.50;;
74660;SDS011;63191;39.566;2.654;2023-01-24T08:50:20;9.70;;;3.40;;
74660;SDS011;63191;39.566;2.654;2023-01-24T08:52:48;8.00;;;3.40;;
74660;SDS011;63191;39.566;2.654;2023-01-24T08:55:15;11.90;;;3.40;;
74660;SDS011;63191;39.566;2.654;2023-01-24T08:57:42;9.20;;;3.50;;
74660;SDS011;63191;39.566;2.654;2023-01-24T09:00:09;11.10;;;3.80;;
74660;SDS011;63191;39.566;2.654;2023-01-24T09:02:35;11.20;;;3.80;;
74660;SDS011;63191;39.566;2.654;2023-01-24T09:05:07;10.10;;;4.20;;
74660;SDS011;63191;39.566;2.654;2023-01-24T09:07:34;10.30;;;4.00;;
74660;SDS011;63191;39.566;2.654;2023-01-24T09:10:03;10.80;;;4.30;;
74660;SDS011;63191;39.566;2.654;2023-01-24T09:12:29;11.90;;;5.10;;
74660;SDS011;63191;39.566;2.654;2023-01-24T09:14:57;10.30;;;4.40;;
74660;SDS011;63191;39.566;2.654;2023-01-24T09:17:23;11.10;;;4.80;;
74660;SDS011;63191;39.566;2.654;2023-01-24T09:19:49;12.10;;;4.40;;
74660;SDS011;63191;39.566;2.654;2023-01-24T09:22:15;12.80;;;4.90;;
74660;SDS011;63191;39.566;2.654;2023-01-24T09:24:41;12.40;;;5.40;;
74660;SDS011;63191;39.566;2.654;2023-01-24T09:27:07;11.70;;;5.60;;
74660;SDS011;63191;39.566;2.654;2023-01-24T09:29:35;9.90;;;5.40;;
74660;SDS011;63191;39.566;2.654;2023-01-24T09:32:00;9.30;;;5.40;;
74660;SDS011;63191;39.566;2.654;2023-01-24T09:34:28;9.80;;;5.00;;
74660;SDS011;63191;39.566;2.654;2023-01-24T09:36:53;9.40;;;5.20;;
74660;SDS011;63191;39.566;2.654;2023-01-24T09:39:21;12.00;;;4.70;;
74660;SDS011;63191;39.566;2.654;2023-01-24T09:44:32;8.70;;;5.80;;
74660;SDS011;63191;39.566;2.654;2023-01-24T09:47:22;8.10;;;4.50;;
74660;SDS011;63191;39.566;2.654;2023-01-24T09:50:04;8.70;;;5.20;;
74660;SDS011;63191;39.566;2.654;2023-01-24T09:52:40;9.40;;;5.00;;
74660;SDS011;63191;39.566;2.654;2023-01-24T10:01:05;7.30;;;4.30;;
74660;SDS011;63191;39.566;2.654;2023-01-24T10:03:36;8.60;;;3.00;;
74660;SDS011;63191;39.566;2.654;2023-01-24T10:09:09;9.40;;;3.00;;
74660;SDS011;63191;39.566;2.654;2023-01-24T10:14:39;6.60;;;2.80;;
74660;SDS011;63191;39.566;2.654;2023-01-24T10:17:36;6.20;;;2.00;;
74660;SDS011;63191;39.566;2.654;2023-01-24T10:20:30;6.90;;;2.00;;
74660;SDS011;63191;39.566;2.654;2023-01-24T10:23:21;5.10;;;1.60;;
74660;SDS011;63191;39.566;2.654;2023-01-24T10:26:20;7.30;;;2.50;;
74660;SDS011;63191;39.566;2.654;2023-01-24T10:29:22;5.30;;;1.90;;
74660;SDS011;63191;39.566;2.654;2023-01-24T10:32:08;9.60;;;2.20;;
74660;SDS011;63191;39.566;2.654;2023-01-24T10:34:41;5.60;;;1.80;;
74660;SDS011;63191;39.566;2.654;2023-01-24T10:39:48;6.90;;;2.30;;
74660;SDS011;63191;39.566;2.654;2023-01-24T10:42:21;6.60;;;1.60;;
74660;SDS011;63191;39.566;2.654;2023-01-24T10:44:59;7.50;;;1.90;;
74660;SDS011;63191;39.566;2.654;2023-01-24T10:50:14;10.90;;;2.20;;
74660;SDS011;63191;39.566;2.654;2023-01-24T10:52:43;6.90;;;1.60;;
74660;SDS011;63191;39.566;2.654;2023-01-24T10:55:56;8.00;;;1.70;;
74660;SDS011;63191;39.566;2.654;2023-01-24T10:58:27;8.60;;;2.30;;
74660;SDS011;63191;39.566;2.654;2023-01-24T11:01:36;4.70;;;1.60;;
74660;SDS011;63191;39.566;2.654;2023-01-24T11:04:19;6.70;;;2.50;;
74660;SDS011;63191;39.566;2.654;2023-01-24T11:06:48;4.80;;;1.50;;
74660;SDS011;63191;39.566;2.654;2023-01-24T11:09:17;6.10;;;2.50;;
74660;SDS011;63191;39.566;2.654;2023-01-24T11:11:55;5.70;;;1.60;;
74660;SDS011;63191;39.566;2.654;2023-01-24T11:14:28;5.60;;;1.40;;
74660;SDS011;63191;39.566;2.654;2023-01-24T11:17:03;4.90;;;1.50;;
74660;SDS011;63191;39.566;2.654;2023-01-24T11:19:35;4.40;;;1.40;;
74660;SDS011;63191;39.566;2.654;2023-01-24T11:22:42;6.20;;;1.50;;
74660;SDS011;63191;39.566;2.654;2023-01-24T11:25:36;5.00;;;1.30;;
74660;SDS011;63191;39.566;2.654;2023-01-24T11:28:01;5.60;;;1.40;;
74660;SDS011;63191;39.566;2.654;2023-01-24T11:30:27;6.30;;;1.70;;
74660;SDS011;63191;39.566;2.654;2023-01-24T11:36:07;6.00;;;1.80;;
74660;SDS011;63191;39.566;2.654;2023-01-24T11:38:43;4.00;;;1.10;;
74660;SDS011;63191;39.566;2.654;2023-01-24T11:44:20;6.90;;;1.60;;
74660;SDS011;63191;39.566;2.654;2023-01-24T11:47:31;4.70;;;1.40;;
74660;SDS011;63191;39.566;2.654;2023-01-24T12:07:04;5.20;;;1.20;;
74660;SDS011;63191;39.566;2.654;2023-01-24T12:09:52;3.10;;;0.90;;
74660;SDS011;63191;39.566;2.654;2023-01-24T12:12:37;5.60;;;1.50;;
74660;SDS011;63191;39.566;2.654;2023-01-24T12:15:46;5.00;;;1.40;;
74660;SDS011;63191;39.566;2.654;2023-01-24T12:18:39;5.50;;;1.90;;
74660;SDS011;63191;39.566;2.654;2023-01-24T12:21:16;5.60;;;2.00;;
74660;SDS011;63191;39.566;2.654;2023-01-24T12:24:08;5.10;;;1.90;;
74660;SDS011;63191;39.566;2.654;2023-01-24T12:26:45;5.90;;;1.70;;
74660;SDS011;63191;39.566;2.654;2023-01-24T12:38:08;3.50;;;0.90;;
74660;SDS011;63191;39.566;2.654;2023-01-24T12:40:57;5.10;;;1.30;;
74660;SDS011;63191;39.566;2.654;2023-01-24T12:46:58;5.90;;;1.50;;
74660;SDS011;63191;39.566;2.654;2023-01-24T12:55:40;4.10;;;0.90;;
74660;SDS011;63191;39.566;2.654;2023-01-24T12:58:23;6.90;;;1.10;;
74660;SDS011;63191;39.566;2.654;2023-01-24T13:04:34;5.20;;;1.10;;
74660;SDS011;63191;39.566;2.654;2023-01-24T13:12:52;3.50;;;1.00;;
74660;SDS011;63191;39.566;2.654;2023-01-24T13:15:41;5.70;;;1.30;;
74660;SDS011;63191;39.566;2.654;2023-01-24T13:18:29;6.00;;;2.00;;
74660;SDS011;63191;39.566;2.654;2023-01-24T13:21:13;6.10;;;1.50;;
74660;SDS011;63191;39.566;2.654;2023-01-24T13:26:53;5.10;;;1.60;;
74660;SDS011;63191;39.566;2.654;2023-01-24T13:29:51;2.90;;;1.00;;
74660;SDS011;63191;39.566;2.654;2023-01-24T13:32:20;5.90;;;1.80;;
74660;SDS011;63191;39.566;2.654;2023-01-24T13:34:52;4.60;;;1.30;;
74660;SDS011;63191;39.566;2.654;2023-01-24T13:37:32;5.30;;;1.60;;
74660;SDS011;63191;39.566;2.654;2023-01-24T13:42:39;4.40;;;1.60;;
74660;SDS011;63191;39.566;2.654;2023-01-24T13:48:00;5.60;;;1.40;;
74660;SDS011;63191;39.566;2.654;2023-01-24T13:50:29;6.30;;;1.50;;
74660;SDS011;63191;39.566;2.654;2023-01-24T13:52:59;6.60;;;1.50;;
74660;SDS011;63191;39.566;2.654;2023-01-24T14:00:53;6.50;;;1.50;;
74660;SDS011;63191;39.566;2.654;2023-01-24T14:03:29;6.80;;;1.30;;
74660;SDS011;63191;39.566;2.654;2023-01-24T14:06:13;7.50;;;1.30;;
74660;SDS011;63191;39.566;2.654;2023-01-24T14:08:47;5.00;;;1.30;;
74660;SDS011;63191;39.566;2.654;2023-01-24T14:11:18;7.00;;;1.20;;
74660;SDS011;63191;39.566;2.654;2023-01-24T14:22:03;4.10;;;1.00;;
74660;SDS011;63191;39.566;2.654;2023-01-24T14:24:37;4.00;;;1.10;;
74660;SDS011;63191;39.566;2.654;2023-01-24T14:27:39;4.80;;;1.10;;
74660;SDS011;63191;39.566;2.654;2023-01-24T14:32:50;4.40;;;1.00;;
74660;SDS011;63191;39.566;2.654;2023-01-24T14:35:31;6.10;;;1.10;;
74660;SDS011;63191;39.566;2.654;2023-01-24T14:38:16;4.70;;;1.00;;
74660;SDS011;63191;39.566;2.654;2023-01-24T14:40:56;5.00;;;1.00;;
74660;SDS011;63191;39.566;2.654;2023-01-24T14:43:45;3.80;;;1.10;;
74660;SDS011;63191;39.566;2.654;2023-01-24T14:46:20;4.70;;;1.10;;
74660;SDS011;63191;39.566;2.654;2023-01-24T14:48:50;6.50;;;1.00;;
74660;SDS011;63191;39.566;2.654;2023-01-24T14:51:18;4.90;;;1.30;;
74660;SDS011;63191;39.566;2.654;2023-01-24T14:53:50;8.70;;;2.40;;
74660;SDS011;63191;39.566;2.654;2023-01-24T14:56:18;6.80;;;1.60;;
74660;SDS011;63191;39.566;2.654;2023-01-24T14:58:44;3.40;;;0.90;;
74660;SDS011;63191;39.566;2.654;2023-01-24T15:01:27;5.70;;;1.20;;
74660;SDS011;63191;39.566;2.654;2023-01-24T15:03:57;5.00;;;1.30;;
74660;SDS011;63191;39.566;2.654;2023-01-24T15:06:24;6.10;;;1.10;;
74660;SDS011;63191;39.566;2.654;2023-01-24T15:08:59;6.30;;;1.10;;
74660;SDS011;63191;39.566;2.654;2023-01-24T15:11:33;8.10;;;1.60;;
74660;SDS011;63191;39.566;2.654;2023-01-24T15:14:04;6.80;;;1.20;;
74660;SDS011;63191;39.566;2.654;2023-01-24T15:16:38;3.80;;;0.80;;
74660;SDS011;63191;39.566;2.654;2023-01-24T15:19:19;5.80;;;1.50;;
74660;SDS011;63191;39.566;2.654;2023-01-24T15:21:48;6.10;;;1.40;;
74660;SDS011;63191;39.566;2.654;2023-01-24T15:24:26;8.70;;;2.00;;
74660;SDS011;63191;39.566;2.654;2023-01-24T15:26:55;14.10;;;3.10;;
74660;SDS011;63191;39.566;2.654;2023-01-24T15:29:46;10.90;;;3.10;;
74660;SDS011;63191;39.566;2.654;2023-01-24T15:35:20;9.40;;;2.40;;
74660;SDS011;63191;39.566;2.654;2023-01-24T15:38:00;6.80;;;1.70;;
74660;SDS011;63191;39.566;2.654;2023-01-24T15:40:26;7.30;;;2.30;;
74660;SDS011;63191;39.566;2.654;2023-01-24T15:42:52;6.70;;;1.60;;
74660;SDS011;63191;39.566;2.654;2023-01-24T15:45:38;7.10;;;1.60;;
74660;SDS011;63191;39.566;2.654;2023-01-24T15:48:13;6.10;;;1.30;;
74660;SDS011;63191;39.566;2.654;2023-01-24T15:50:53;5.10;;;1.50;;
74660;SDS011;63191;39.566;2.654;2023-01-24T15:53:38;5.40;;;1.30;;
74660;SDS011;63191;39.566;2.654;2023-01-24T15:56:11;5.10;;;1.10;;
74660;SDS011;63191;39.566;2.654;2023-01-24T15:58:49;5.70;;;1.30;;
74660;SDS011;63191;39.566;2.654;2023-01-24T16:01:16;6.90;;;1.30;;
74660;SDS011;63191;39.566;2.654;2023-01-24T16:03:42;5.80;;;1.20;;
74660;SDS011;63191;39.566;2.654;2023-01-24T16:06:08;7.80;;;1.30;;
74660;SDS011;63191;39.566;2.654;2023-01-24T16:08:34;8.40;;;1.70;;
74660;SDS011;63191;39.566;2.654;2023-01-24T16:11:00;5.30;;;1.60;;
74660;SDS011;63191;39.566;2.654;2023-01-24T16:16:05;6.60;;;1.20;;
74660;SDS011;63191;39.566;2.654;2023-01-24T16:18:33;5.80;;;1.50;;
74660;SDS011;63191;39.566;2.654;2023-01-24T16:21:00;5.30;;;1.20;;
74660;SDS011;63191;39.566;2.654;2023-01-24T16:23:25;6.20;;;1.30;;
74660;SDS011;63191;39.566;2.654;2023-01-24T16:25:54;5.70;;;1.30;;
74660;SDS011;63191;39.566;2.654;2023-01-24T16:28:23;5.10;;;1.20;;
74660;SDS011;63191;39.566;2.654;2023-01-24T16:30:51;7.40;;;1.60;;
74660;SDS011;63191;39.566;2.654;2023-01-24T16:33:20;6.90;;;2.10;;
74660;SDS011;63191;39.566;2.654;2023-01-24T16:35:47;6.50;;;1.90;;
74660;SDS011;63191;39.566;2.654;2023-01-24T16:38:14;5.50;;;1.40;;
74660;SDS011;63191;39.566;2.654;2023-01-24T16:40:40;6.20;;;2.00;;
74660;SDS011;63191;39.566;2.654;2023-01-24T16:43:07;6.60;;;1.50;;
74660;SDS011;63191;39.566;2.654;2023-01-24T16:45:44;5.80;;;1.70;;
74660;SDS011;63191;39.566;2.654;2023-01-24T16:48:12;8.30;;;1.60;;
74660;SDS011;63191;39.566;2.654;2023-01-24T16:50:39;6.40;;;1.60;;
74660;SDS011;63191;39.566;2.654;2023-01-24T16:53:06;7.00;;;1.60;;
74660;SDS011;63191;39.566;2.654;2023-01-24T16:55:32;8.30;;;1.70;;
74660;SDS011;63191;39.566;2.654;2023-01-24T16:58:00;6.90;;;2.20;;
74660;SDS011;63191;39.566;2.654;2023-01-24T17:00:26;8.50;;;2.70;;
74660;SDS011;63191;39.566;2.654;2023-01-24T17:02:52;6.00;;;2.10;;
74660;SDS011;63191;39.566;2.654;2023-01-24T17:05:19;7.10;;;1.60;;
74660;SDS011;63191;39.566;2.654;2023-01-24T17:07:48;5.80;;;1.90;;
74660;SDS011;63191;39.566;2.654;2023-01-24T17:10:15;5.60;;;1.80;;